Time;durP1;ratioP1;P1;durP2;ratioP2;P2;SDS_P1;SDS_P2;PMS_P1;PMS_P2;Temp;Humidity;BMP_temperature;BMP_pressure;BME280_temperature;BME280_humidity;BME280_pressure;Samples;Min_cycle;Max_cycle;Signal;HPM_P1;HPM_P2
2022/09/01 00:01:19;;;;;;;32.00;24.00;;;;;;;;;;4883965;29;20279;-44
2022/09/01 00:03:47;;;;;;;30.07;23.47;;;;;;;;;;4888464;29;20198;-41
2022/09/01 00:06:13;;;;;;;27.93;23.03;;;;;;;;;;4886530;29;20196;-40
2022/09/01 00:08:39;;;;;;;22.67;20.33;;;;;;;;;;4887173;29;20240;-41
2022/09/01 00:11:06;;;;;;;34.60;28.10;;;;;;;;;;4882702;29;20267;-41
2022/09/01 00:13:32;;;;;;;25.37;21.37;;;;;;;;;;4887485;29;20294;-41
2022/09/01 00:16:02;;;;;;;29.10;25.73;;;;;;;;;;4890530;29;20184;-41
2022/09/01 00:18:29;;;;;;;28.00;22.50;;;;;;;;;;4887794;28;20191;-41
2022/09/01 00:20:58;;;;;;;24.50;21.90;;;;;;;;;;4885656;28;20343;-41
2022/09/01 00:23:24;;;;;;;31.83;26.60;;;;;;;;;;4887716;29;20608;-44
2022/09/01 00:25:50;;;;;;;32.87;27.83;;;;;;;;;;4890557;29;20188;-41
2022/09/01 00:28:16;;;;;;;27.10;22.07;;;;;;;;;;4887407;29;20729;-42
2022/09/01 00:30:42;;;;;;;25.13;21.10;;;;;;;;;;4883814;29;20520;-42
2022/09/01 00:33:08;;;;;;;23.20;20.70;;;;;;;;;;4888186;28;20254;-41
2022/09/01 00:35:34;;;;;;;24.37;20.23;;;;;;;;;;4889001;29;20181;-40
2022/09/01 00:38:01;;;;;;;25.83;22.90;;;;;;;;;;4882939;29;20630;-42
2022/09/01 00:40:27;;;;;;;30.37;25.10;;;;;;;;;;4880954;29;20262;-40
2022/09/01 00:42:53;;;;;;;28.93;23.53;;;;;;;;;;4887658;29;20400;-42
2022/09/01 00:45:20;;;;;;;28.17;24.60;;;;;;;;;;4883945;29;20192;-42
2022/09/01 00:47:46;;;;;;;28.60;24.80;;;;;;;;;;4878097;29;20937;-41
2022/09/01 00:50:14;;;;;;;29.20;23.03;;;;;;;;;;4884364;29;20187;-42
2022/09/01 00:52:50;;;;;;;27.20;22.67;;;;;;;;;;4881863;29;20192;-40
2022/09/01 00:55:18;;;;;;;33.40;27.87;;;;;;;;;;4883566;29;20187;-41
2022/09/01 00:57:45;;;;;;;25.83;23.17;;;;;;;;;;4881383;29;20212;-41
2022/09/01 01:00:16;;;;;;;27.63;23.13;;;;;;;;;;4882353;29;20448;-41
2022/09/01 01:02:43;;;;;;;31.50;24.13;;;;;;;;;;4885323;29;20255;-43
2022/09/01 01:05:10;;;;;;;33.43;27.53;;;;;;;;;;4886752;29;20589;-41
2022/09/01 01:07:41;;;;;;;32.93;29.03;;;;;;;;;;4883916;29;20767;-42
2022/09/01 01:10:10;;;;;;;28.90;25.77;;;;;;;;;;4887499;29;20287;-42
2022/09/01 01:12:39;;;;;;;34.17;29.03;;;;;;;;;;4888806;29;20241;-43
2022/09/01 01:15:06;;;;;;;37.13;31.03;;;;;;;;;;4898577;28;20192;-43
2022/09/01 01:17:32;;;;;;;33.07;29.07;;;;;;;;;;4885409;29;20704;-43
2022/09/01 01:23:01;;;;;;;34.80;29.27;;;;;;;;;;4888034;29;20287;-41
2022/09/01 01:25:28;;;;;;;31.97;28.00;;;;;;;;;;4887013;29;20198;-43
2022/09/01 01:28:29;;;;;;;31.30;26.67;;;;;;;;;;4888707;29;20189;-43
2022/09/01 01:30:58;;;;;;;33.60;28.30;;;;;;;;;;4915570;28;20200;-42
2022/09/01 01:33:29;;;;;;;30.83;26.87;;;;;;;;;;4888636;29;20235;-43
2022/09/01 01:35:56;;;;;;;27.60;24.60;;;;;;;;;;4888896;29;20251;-43
2022/09/01 01:38:22;;;;;;;33.13;27.80;;;;;;;;;;4887908;29;20208;-41
2022/09/01 01:40:50;;;;;;;27.03;23.17;;;;;;;;;;4883692;29;20309;-42
2022/09/01 01:43:20;;;;;;;29.07;24.47;;;;;;;;;;4890327;29;20188;-43
2022/09/01 01:45:50;;;;;;;38.13;30.07;;;;;;;;;;4888473;29;20175;-42
2022/09/01 01:48:23;;;;;;;34.77;29.50;;;;;;;;;;4887430;29;20625;-43
2022/09/01 01:50:50;;;;;;;40.03;30.90;;;;;;;;;;4887860;29;20289;-43
2022/09/01 01:53:17;;;;;;;34.00;27.83;;;;;;;;;;4887600;29;20290;-43
2022/09/01 01:55:44;;;;;;;34.57;29.23;;;;;;;;;;4889699;29;20214;-43
2022/09/01 01:58:10;;;;;;;38.23;32.63;;;;;;;;;;4888510;29;20442;-43
2022/09/01 02:00:37;;;;;;;32.73;27.53;;;;;;;;;;4886575;29;20763;-43
2022/09/01 02:03:06;;;;;;;37.23;30.20;;;;;;;;;;4885248;29;20185;-43
2022/09/01 02:05:34;;;;;;;37.70;31.63;;;;;;;;;;4884937;29;20647;-43
2022/09/01 02:08:03;;;;;;;41.73;34.60;;;;;;;;;;4885580;29;20598;-42
2022/09/01 02:10:34;;;;;;;34.77;30.10;;;;;;;;;;4884655;29;20188;-43
2022/09/01 02:13:06;;;;;;;39.63;31.60;;;;;;;;;;4886775;29;20511;-43
2022/09/01 02:15:44;;;;;;;36.67;31.17;;;;;;;;;;4885910;29;20175;-43
2022/09/01 02:18:15;;;;;;;46.20;37.10;;;;;;;;;;4885357;29;20295;-43
2022/09/01 02:20:42;;;;;;;47.83;36.87;;;;;;;;;;4886563;29;20187;-43
2022/09/01 02:23:09;;;;;;;42.23;35.43;;;;;;;;;;4883592;29;20191;-42
2022/09/01 02:25:36;;;;;;;43.77;37.20;;;;;;;;;;4884814;29;20368;-43
2022/09/01 02:28:03;;;;;;;55.73;40.53;;;;;;;;;;4885450;29;20314;-41
2022/09/01 02:30:31;;;;;;;57.37;43.33;;;;;;;;;;4885078;29;20215;-43
2022/09/01 02:32:58;;;;;;;52.07;40.27;;;;;;;;;;4887092;29;20208;-42
2022/09/01 02:35:27;;;;;;;62.47;44.60;;;;;;;;;;4883366;29;20546;-42
2022/09/01 02:37:57;;;;;;;46.50;38.70;;;;;;;;;;4882986;29;20262;-43
2022/09/01 02:40:23;;;;;;;48.27;39.23;;;;;;;;;;4885101;29;20272;-42
2022/09/01 02:42:51;;;;;;;41.73;35.23;;;;;;;;;;4888108;29;20188;-43
2022/09/01 02:45:18;;;;;;;43.63;36.03;;;;;;;;;;4886027;29;20298;-42
2022/09/01 02:47:47;;;;;;;37.77;33.67;;;;;;;;;;4898411;28;20189;-43
2022/09/01 02:50:15;;;;;;;49.17;41.03;;;;;;;;;;4881201;29;20180;-42
2022/09/01 02:52:42;;;;;;;52.93;42.87;;;;;;;;;;4880909;29;20725;-43
2022/09/01 02:55:08;;;;;;;52.47;44.43;;;;;;;;;;4881532;29;20840;-43
2022/09/01 02:57:34;;;;;;;56.43;44.73;;;;;;;;;;4884873;29;20184;-42
2022/09/01 03:00:01;;;;;;;58.73;46.23;;;;;;;;;;4883390;29;20450;-43
2022/09/01 03:02:27;;;;;;;48.33;41.13;;;;;;;;;;4881244;29;20181;-40
2022/09/01 03:04:57;;;;;;;56.73;46.57;;;;;;;;;;4885282;29;20176;-43
2022/09/01 03:07:24;;;;;;;68.10;48.00;;;;;;;;;;4884825;29;20620;-43
2022/09/01 03:09:51;;;;;;;51.00;41.53;;;;;;;;;;4883278;29;20243;-43
2022/09/01 03:12:18;;;;;;;60.57;48.90;;;;;;;;;;4885247;29;20286;-43
2022/09/01 03:14:44;;;;;;;56.97;45.37;;;;;;;;;;4885879;28;20519;-42
2022/09/01 03:17:11;;;;;;;57.43;45.87;;;;;;;;;;4885486;29;20681;-43
2022/09/01 03:19:44;;;;;;;59.10;47.33;;;;;;;;;;4881185;29;20551;-43
2022/09/01 03:22:10;;;;;;;55.03;46.47;;;;;;;;;;4882680;29;20168;-43
2022/09/01 03:24:37;;;;;;;61.57;47.87;;;;;;;;;;4882717;29;20208;-43
2022/09/01 03:27:03;;;;;;;59.80;47.70;;;;;;;;;;4886471;29;20184;-43
2022/09/01 03:29:29;;;;;;;64.27;49.50;;;;;;;;;;4886093;29;20497;-42
2022/09/01 03:31:55;;;;;;;60.20;49.50;;;;;;;;;;4881605;29;20835;-43
2022/09/01 03:34:22;;;;;;;48.90;41.93;;;;;;;;;;4881187;29;20290;-43
2022/09/01 03:36:53;;;;;;;51.13;43.07;;;;;;;;;;4884469;28;20720;-42
2022/09/01 03:39:19;;;;;;;50.23;42.37;;;;;;;;;;4882798;29;20833;-43
2022/09/01 03:41:45;;;;;;;60.37;48.47;;;;;;;;;;4882354;29;20437;-41
2022/09/01 03:44:13;;;;;;;61.47;47.43;;;;;;;;;;4881172;29;20531;-43
2022/09/01 03:46:40;;;;;;;55.27;45.67;;;;;;;;;;4885471;29;20709;-41
2022/09/01 03:49:06;;;;;;;57.23;45.67;;;;;;;;;;4884593;29;20191;-41
2022/09/01 03:51:33;;;;;;;52.40;45.17;;;;;;;;;;4880341;29;20196;-40
2022/09/01 03:54:00;;;;;;;57.93;45.03;;;;;;;;;;4879510;29;20498;-42
2022/09/01 03:56:27;;;;;;;62.17;50.17;;;;;;;;;;4881973;29;20907;-41
2022/09/01 03:58:55;;;;;;;49.90;39.60;;;;;;;;;;4886636;29;20478;-41
2022/09/01 04:01:21;;;;;;;42.80;37.60;;;;;;;;;;4881532;29;20994;-41
2022/09/01 04:03:50;;;;;;;41.13;36.20;;;;;;;;;;4882528;29;20610;-40
2022/09/01 04:06:18;;;;;;;52.93;43.13;;;;;;;;;;4884249;29;20188;-42
2022/09/01 04:08:45;;;;;;;63.03;45.60;;;;;;;;;;4887116;29;20608;-42
2022/09/01 04:11:15;;;;;;;59.50;46.97;;;;;;;;;;4885969;29;20255;-41
2022/09/01 04:13:41;;;;;;;69.77;49.17;;;;;;;;;;4882119;29;20622;-42
2022/09/01 04:18:03;;;;;;;63.57;46.87;;;;;;;;;;4885594;29;20180;-41
2022/09/01 04:19:14;;;;;;;56.03;42.70;;;;;;;;;;4880719;29;20483;-41
2022/09/01 04:21:41;;;;;;;72.77;49.83;;;;;;;;;;4880554;29;21071;-42
2022/09/01 04:24:08;;;;;;;66.23;51.27;;;;;;;;;;4885157;29;20208;-42
2022/09/01 04:26:34;;;;;;;74.27;51.07;;;;;;;;;;4884724;29;20185;-41
2022/09/01 04:29:01;;;;;;;55.23;43.63;;;;;;;;;;4885185;29;20618;-40
2022/09/01 04:31:29;;;;;;;53.07;43.27;;;;;;;;;;4883238;29;20226;-40
2022/09/01 04:33:55;;;;;;;51.10;41.37;;;;;;;;;;4885551;29;20208;-42
2022/09/01 04:36:24;;;;;;;48.17;40.50;;;;;;;;;;4885989;29;20215;-41
2022/09/01 04:39:00;;;;;;;49.70;40.73;;;;;;;;;;4884360;29;20208;-41
2022/09/01 04:41:31;;;;;;;52.37;44.27;;;;;;;;;;4880653;28;20207;-41
2022/09/01 04:43:58;;;;;;;54.80;43.70;;;;;;;;;;4881761;29;20599;-42
2022/09/01 04:46:25;;;;;;;51.53;43.23;;;;;;;;;;4888231;29;20176;-41
2022/09/01 04:48:52;;;;;;;53.87;43.53;;;;;;;;;;4887758;29;20486;-41
2022/09/01 04:51:19;;;;;;;62.77;48.77;;;;;;;;;;4887635;29;20287;-42
2022/09/01 04:53:47;;;;;;;48.70;40.97;;;;;;;;;;4886361;29;20200;-40
2022/09/01 04:56:21;;;;;;;57.17;47.10;;;;;;;;;;4886828;29;20786;-42
2022/09/01 04:58:48;;;;;;;45.77;39.80;;;;;;;;;;4888899;29;20176;-42
2022/09/01 05:01:16;;;;;;;54.07;45.10;;;;;;;;;;4886708;28;20263;-41
2022/09/01 05:03:42;;;;;;;62.53;46.10;;;;;;;;;;4884644;29;20243;-42
2022/09/01 05:06:18;;;;;;;49.93;42.10;;;;;;;;;;4887436;29;20226;-41
2022/09/01 05:08:45;;;;;;;62.70;49.00;;;;;;;;;;4884387;28;20997;-42
2022/09/01 05:11:11;;;;;;;68.10;51.80;;;;;;;;;;4883964;29;20191;-40
2022/09/01 05:13:38;;;;;;;50.53;43.27;;;;;;;;;;4887357;29;20303;-40
2022/09/01 05:16:11;;;;;;;57.17;47.00;;;;;;;;;;4890441;28;20236;-42
2022/09/01 05:18:39;;;;;;;68.50;51.20;;;;;;;;;;4889264;29;20259;-42
2022/09/01 05:21:08;;;;;;;58.27;48.50;;;;;;;;;;4882431;29;20180;-41
2022/09/01 05:23:35;;;;;;;61.00;48.47;;;;;;;;;;4882152;29;20736;-42
2022/09/01 05:26:13;;;;;;;49.83;42.63;;;;;;;;;;4889283;29;20640;-42
2022/09/01 05:28:40;;;;;;;66.03;50.30;;;;;;;;;;4892826;28;20172;-42
2022/09/01 05:31:06;;;;;;;66.80;52.30;;;;;;;;;;4888067;29;21027;-41
2022/09/01 05:33:35;;;;;;;60.27;50.23;;;;;;;;;;4884026;29;20238;-40
2022/09/01 05:36:06;;;;;;;63.93;52.27;;;;;;;;;;4888234;29;20176;-42
2022/09/01 05:38:33;;;;;;;49.50;41.60;;;;;;;;;;4887469;29;20546;-39
2022/09/01 05:41:03;;;;;;;56.80;46.33;;;;;;;;;;4887874;29;20183;-41
2022/09/01 05:43:30;;;;;;;61.80;51.13;;;;;;;;;;4887555;29;20618;-41
2022/09/01 05:45:57;;;;;;;54.47;44.33;;;;;;;;;;4888349;29;20180;-41
2022/09/01 05:48:23;;;;;;;54.50;44.87;;;;;;;;;;4890580;28;20506;-42
2022/09/01 05:50:55;;;;;;;50.60;44.73;;;;;;;;;;4887978;29;20188;-41
2022/09/01 05:53:24;;;;;;;52.23;46.00;;;;;;;;;;4887042;28;20647;-41
2022/09/01 05:55:53;;;;;;;49.93;42.80;;;;;;;;;;4888546;29;20192;-41
2022/09/01 05:58:20;;;;;;;49.20;42.73;;;;;;;;;;4889411;29;20176;-42
2022/09/01 06:00:48;;;;;;;52.27;43.67;;;;;;;;;;4888766;28;20235;-42
2022/09/01 06:03:14;;;;;;;48.30;42.67;;;;;;;;;;4887706;29;20189;-41
2022/09/01 06:05:41;;;;;;;49.23;41.63;;;;;;;;;;4889985;29;20320;-42
2022/09/01 06:08:09;;;;;;;53.80;44.97;;;;;;;;;;4887516;29;20235;-42
2022/09/01 06:10:40;;;;;;;55.40;44.30;;;;;;;;;;4883401;29;20183;-42
2022/09/01 06:13:07;;;;;;;47.13;41.63;;;;;;;;;;4884194;29;20978;-42
2022/09/01 06:15:35;;;;;;;63.57;48.00;;;;;;;;;;4884777;29;20694;-40
2022/09/01 06:18:04;;;;;;;53.20;44.00;;;;;;;;;;4885102;29;20271;-42
2022/09/01 06:20:31;;;;;;;51.53;42.50;;;;;;;;;;4883074;29;20211;-42
2022/09/01 06:22:57;;;;;;;44.60;39.63;;;;;;;;;;4883275;29;20218;-42
2022/09/01 06:25:29;;;;;;;49.40;42.57;;;;;;;;;;4888403;29;20169;-42
2022/09/01 06:27:56;;;;;;;48.70;40.70;;;;;;;;;;4887068;29;20294;-42
2022/09/01 06:30:25;;;;;;;42.43;35.30;;;;;;;;;;4884181;28;20223;-42
2022/09/01 06:32:51;;;;;;;41.27;36.53;;;;;;;;;;4882605;28;20195;-42
2022/09/01 06:35:18;;;;;;;40.67;33.60;;;;;;;;;;4882898;29;20179;-42
2022/09/01 06:37:44;;;;;;;36.63;30.77;;;;;;;;;;4889557;29;21469;-42
2022/09/01 06:40:24;;;;;;;30.23;27.10;;;;;;;;;;4889783;29;20539;-42
2022/09/01 06:42:51;;;;;;;36.13;30.30;;;;;;;;;;4890311;29;20370;-42
2022/09/01 06:45:19;;;;;;;32.50;28.37;;;;;;;;;;4888154;29;20432;-41
2022/09/01 06:47:46;;;;;;;27.97;25.07;;;;;;;;;;4889690;29;20176;-42
2022/09/01 06:50:14;;;;;;;37.37;29.97;;;;;;;;;;4889171;29;20933;-42
2022/09/01 06:52:43;;;;;;;28.60;24.87;;;;;;;;;;4889093;29;20188;-43
2022/09/01 06:55:10;;;;;;;27.10;24.20;;;;;;;;;;4888913;29;20318;-42
2022/09/01 06:57:37;;;;;;;33.03;28.40;;;;;;;;;;4887469;29;20514;-43
2022/09/01 07:00:06;;;;;;;30.87;26.90;;;;;;;;;;4889093;29;20191;-43
2022/09/01 07:02:32;;;;;;;22.40;20.00;;;;;;;;;;4888621;29;20216;-43
2022/09/01 07:04:59;;;;;;;25.40;21.07;;;;;;;;;;4887727;29;20200;-42
2022/09/01 07:07:29;;;;;;;22.07;19.37;;;;;;;;;;4891677;29;20207;-41
2022/09/01 07:09:55;;;;;;;21.00;18.40;;;;;;;;;;4898833;29;20415;-41
2022/09/01 07:12:22;;;;;;;24.03;19.30;;;;;;;;;;4898812;29;21032;-43
2022/09/01 07:14:49;;;;;;;17.67;15.87;;;;;;;;;;4895420;29;20210;-43
2022/09/01 07:17:15;;;;;;;14.67;11.90;;;;;;;;;;4894660;29;20554;-43
2022/09/01 07:19:41;;;;;;;12.63;11.33;;;;;;;;;;4894019;29;20286;-43
2022/09/01 07:22:07;;;;;;;13.20;11.80;;;;;;;;;;4896416;28;20180;-43
2022/09/01 07:24:33;;;;;;;15.83;12.10;;;;;;;;;;4895251;29;20616;-43
2022/09/01 07:26:59;;;;;;;12.43;10.77;;;;;;;;;;4896508;29;20180;-42
2022/09/01 07:29:25;;;;;;;14.33;12.30;;;;;;;;;;4895784;29;20259;-43
2022/09/01 07:31:54;;;;;;;16.80;12.37;;;;;;;;;;4895931;29;20286;-41
2022/09/01 07:34:21;;;;;;;17.40;13.47;;;;;;;;;;4887322;29;20512;-43
2022/09/01 07:36:48;;;;;;;13.80;11.63;;;;;;;;;;4889477;29;21138;-43
2022/09/01 07:39:14;;;;;;;14.33;11.97;;;;;;;;;;4885963;29;20203;-41
2022/09/01 07:41:41;;;;;;;16.07;11.23;;;;;;;;;;4885344;28;20216;-43
2022/09/01 07:44:09;;;;;;;14.40;10.23;;;;;;;;;;4891341;29;20271;-43
2022/09/01 07:46:35;;;;;;;10.80;9.70;;;;;;;;;;4887335;29;20225;-42
2022/09/01 07:49:01;;;;;;;12.87;10.07;;;;;;;;;;4883715;29;21340;-43
2022/09/01 07:51:29;;;;;;;10.57;9.50;;;;;;;;;;4883869;29;20728;-43
2022/09/01 07:53:55;;;;;;;12.00;9.87;;;;;;;;;;4888658;29;20256;-43
2022/09/01 07:56:22;;;;;;;11.13;9.90;;;;;;;;;;4891444;28;20191;-42
2022/09/01 07:58:49;;;;;;;12.90;9.73;;;;;;;;;;4894044;28;20708;-43
2022/09/01 08:01:18;;;;;;;11.93;9.20;;;;;;;;;;4891301;29;20883;-42
2022/09/01 08:03:48;;;;;;;8.97;8.03;;;;;;;;;;4894969;29;20179;-43
2022/09/01 08:06:19;;;;;;;11.77;8.10;;;;;;;;;;4896779;29;20206;-43
2022/09/01 08:08:45;;;;;;;9.43;8.13;;;;;;;;;;4896511;29;20188;-41
2022/09/01 08:11:15;;;;;;;9.60;7.57;;;;;;;;;;4896833;29;20180;-41
2022/09/01 08:13:41;;;;;;;9.80;7.83;;;;;;;;;;4891737;29;20511;-43
2022/09/01 08:16:08;;;;;;;8.63;7.73;;;;;;;;;;4893555;29;20309;-41
2022/09/01 08:18:35;;;;;;;10.83;9.13;;;;;;;;;;4897354;29;20691;-43
2022/09/01 08:21:05;;;;;;;10.90;8.90;;;;;;;;;;4898867;29;20180;-42
2022/09/01 08:23:31;;;;;;;10.80;8.97;;;;;;;;;;4894246;29;20691;-43
2022/09/01 08:25:57;;;;;;;8.63;7.57;;;;;;;;;;4900044;29;20184;-41
2022/09/01 08:28:23;;;;;;;11.83;7.40;;;;;;;;;;4896924;29;20683;-43
2022/09/01 08:30:49;;;;;;;11.57;7.83;;;;;;;;;;4895771;29;20243;-43
2022/09/01 08:33:15;;;;;;;12.23;8.27;;;;;;;;;;4894417;29;20227;-42
2022/09/01 08:35:43;;;;;;;9.67;8.40;;;;;;;;;;4897519;29;20259;-43
2022/09/01 08:38:09;;;;;;;8.87;7.97;;;;;;;;;;4901080;29;20191;-42
2022/09/01 08:40:36;;;;;;;9.77;8.57;;;;;;;;;;4901757;29;20176;-42
2022/09/01 08:43:21;;;;;;;9.87;7.40;;;;;;;;;;4898657;29;20796;-43
2022/09/01 08:45:48;;;;;;;11.37;7.93;;;;;;;;;;4895502;29;20517;-43
2022/09/01 08:48:17;;;;;;;10.53;7.17;;;;;;;;;;4901462;29;20255;-43
2022/09/01 08:50:45;;;;;;;7.60;6.17;;;;;;;;;;4898450;29;20206;-42
2022/09/01 08:53:19;;;;;;;9.23;6.40;;;;;;;;;;4899543;29;20177;-43
2022/09/01 08:55:46;;;;;;;10.53;6.77;;;;;;;;;;4900167;29;20177;-43
2022/09/01 08:58:15;;;;;;;9.57;6.30;;;;;;;;;;4902225;29;20268;-43
2022/09/01 09:00:44;;;;;;;6.73;5.57;;;;;;;;;;4899327;29;20546;-43
2022/09/01 09:03:13;;;;;;;9.67;6.00;;;;;;;;;;4899257;29;20187;-42
2022/09/01 09:05:57;;;;;;;10.70;6.10;;;;;;;;;;4900134;28;20685;-43
2022/09/01 09:08:38;;;;;;;6.77;4.90;;;;;;;;;;4894748;28;20217;-42
2022/09/01 09:11:06;;;;;;;7.73;5.13;;;;;;;;;;4894599;29;20218;-42
2022/09/01 09:13:41;;;;;;;11.13;5.83;;;;;;;;;;4899603;29;20636;-43
2022/09/01 09:16:15;;;;;;;7.77;6.47;;;;;;;;;;4900961;29;20758;-42
2022/09/01 09:18:50;;;;;;;10.87;6.80;;;;;;;;;;4897006;29;20278;-42
2022/09/01 09:21:25;;;;;;;7.40;6.60;;;;;;;;;;4897805;29;20179;-43
2022/09/01 09:23:55;;;;;;;12.37;6.67;;;;;;;;;;4897269;29;20199;-42
2022/09/01 09:26:21;;;;;;;8.43;5.70;;;;;;;;;;4900651;29;20614;-42
2022/09/01 09:28:48;;;;;;;6.00;5.40;;;;;;;;;;4899471;29;20632;-43
2022/09/01 09:31:52;;;;;;;6.03;4.60;;;;;;;;;;4897766;29;20184;-42
2022/09/01 09:34:31;;;;;;;6.50;5.30;;;;;;;;;;4897342;29;20378;-43
2022/09/01 09:37:00;;;;;;;10.47;5.63;;;;;;;;;;4900065;29;20368;-43
2022/09/01 09:39:27;;;;;;;7.27;5.47;;;;;;;;;;4901133;29;20488;-42
2022/09/01 09:42:07;;;;;;;8.00;5.57;;;;;;;;;;4898246;29;20176;-42
2022/09/01 09:44:35;;;;;;;7.70;4.00;;;;;;;;;;4897949;29;20458;-43
2022/09/01 09:47:01;;;;;;;8.50;5.00;;;;;;;;;;4900594;29;20274;-43
2022/09/01 09:49:28;;;;;;;7.50;4.50;;;;;;;;;;4899703;29;20693;-42
2022/09/01 09:51:56;;;;;;;8.43;4.97;;;;;;;;;;4899301;29;20223;-43
2022/09/01 09:54:25;;;;;;;7.70;4.57;;;;;;;;;;4896620;29;20287;-43
2022/09/01 09:57:18;;;;;;;6.17;4.10;;;;;;;;;;4891181;29;20172;-43
2022/09/01 09:59:46;;;;;;;7.80;3.57;;;;;;;;;;4885723;29;20765;-42
2022/09/01 10:02:31;;;;;;;5.87;3.63;;;;;;;;;;4887849;29;20180;-42
2022/09/01 10:05:18;;;;;;;5.83;3.60;;;;;;;;;;4890040;29;21053;-42
2022/09/01 10:07:44;;;;;;;5.50;2.87;;;;;;;;;;4896873;28;20697;-41
2022/09/01 10:10:28;;;;;;;5.60;3.63;;;;;;;;;;4890952;29;20195;-41
2022/09/01 10:12:55;;;;;;;5.53;3.40;;;;;;;;;;4889253;29;20582;-42
2022/09/01 10:15:23;;;;;;;5.30;3.30;;;;;;;;;;4888195;29;20200;-42
2022/09/01 10:17:51;;;;;;;5.13;2.97;;;;;;;;;;4891292;29;20244;-42
2022/09/01 10:20:22;;;;;;;6.60;3.10;;;;;;;;;;4891824;29;20553;-42
2022/09/01 10:22:49;;;;;;;6.07;2.80;;;;;;;;;;4902091;28;20188;-41
2022/09/01 10:25:29;;;;;;;5.50;3.00;;;;;;;;;;4891332;29;20248;-42
2022/09/01 10:27:58;;;;;;;4.63;3.00;;;;;;;;;;4901010;29;20407;-41
2022/09/01 10:30:24;;;;;;;6.10;3.30;;;;;;;;;;4901605;29;20270;-42
2022/09/01 10:32:53;;;;;;;6.93;2.83;;;;;;;;;;4908519;28;20625;-42
2022/09/01 10:35:25;;;;;;;5.27;2.50;;;;;;;;;;4894390;29;20197;-42
2022/09/01 10:37:52;;;;;;;5.43;2.50;;;;;;;;;;4900025;29;20527;-43
2022/09/01 10:40:32;;;;;;;7.47;2.40;;;;;;;;;;4898114;29;20181;-42
2022/09/01 10:43:18;;;;;;;7.23;2.57;;;;;;;;;;4896712;29;20187;-42
2022/09/01 10:45:44;;;;;;;3.10;2.40;;;;;;;;;;4899035;28;20192;-41
2022/09/01 10:48:19;;;;;;;4.77;2.40;;;;;;;;;;4900042;29;20172;-42
2022/09/01 10:50:46;;;;;;;5.63;2.60;;;;;;;;;;4895596;29;20692;-43
2022/09/01 10:53:31;;;;;;;6.03;2.60;;;;;;;;;;4898345;29;20263;-42
2022/09/01 10:56:23;;;;;;;7.83;2.60;;;;;;;;;;4897515;29;20176;-42
2022/09/01 10:59:18;;;;;;;4.17;2.30;;;;;;;;;;4914116;28;20261;-42
2022/09/01 11:01:44;;;;;;;5.17;2.30;;;;;;;;;;4898945;28;20583;-42
2022/09/01 11:04:12;;;;;;;4.60;2.47;;;;;;;;;;4891281;29;20269;-43
2022/09/01 11:06:41;;;;;;;5.63;2.07;;;;;;;;;;4900061;29;20234;-43
2022/09/01 11:09:17;;;;;;;5.90;2.07;;;;;;;;;;4898221;29;20179;-43
2022/09/01 11:12:03;;;;;;;6.00;2.23;;;;;;;;;;4895231;29;20802;-41
2022/09/01 11:14:34;;;;;;;4.90;1.90;;;;;;;;;;4897612;28;20732;-43
2022/09/01 11:17:19;;;;;;;6.23;2.10;;;;;;;;;;4896809;29;20258;-43
2022/09/01 11:20:11;;;;;;;5.83;2.10;;;;;;;;;;4897740;29;20176;-42
2022/09/01 11:22:42;;;;;;;3.13;1.90;;;;;;;;;;4897444;29;20184;-41
2022/09/01 11:25:08;;;;;;;4.73;1.87;;;;;;;;;;4896381;29;21022;-42
2022/09/01 11:27:50;;;;;;;2.93;1.73;;;;;;;;;;4896825;29;20872;-42
2022/09/01 11:30:21;;;;;;;6.33;2.00;;;;;;;;;;4896998;29;20298;-41
2022/09/01 11:32:50;;;;;;;3.67;1.70;;;;;;;;;;4901114;29;20535;-42
2022/09/01 11:35:18;;;;;;;6.40;2.00;;;;;;;;;;4889766;28;20878;-42
2022/09/01 11:37:48;;;;;;;5.67;1.80;;;;;;;;;;4896338;29;20184;-42
2022/09/01 11:40:20;;;;;;;2.77;1.53;;;;;;;;;;4897387;29;20506;-42
2022/09/01 11:42:47;;;;;;;6.27;1.77;;;;;;;;;;4891777;29;20191;-42
2022/09/01 11:45:16;;;;;;;5.07;1.40;;;;;;;;;;4904280;28;21097;-43
2022/09/01 11:47:43;;;;;;;6.23;1.67;;;;;;;;;;4896738;29;20567;-41
2022/09/01 11:50:15;;;;;;;6.00;1.53;;;;;;;;;;4895566;29;20585;-41
2022/09/01 11:52:42;;;;;;;4.20;1.40;;;;;;;;;;4898707;29;20452;-41
2022/09/01 11:55:09;;;;;;;5.17;1.57;;;;;;;;;;4897364;29;20247;-42
2022/09/01 11:57:39;;;;;;;5.90;1.60;;;;;;;;;;4900722;28;20278;-42
2022/09/01 12:00:08;;;;;;;6.10;1.50;;;;;;;;;;4900703;29;20545;-43
2022/09/01 12:02:36;;;;;;;4.93;1.70;;;;;;;;;;4901308;29;20186;-43
2022/09/01 12:05:03;;;;;;;3.60;1.43;;;;;;;;;;4900268;29;20531;-42
2022/09/01 12:07:38;;;;;;;4.13;1.47;;;;;;;;;;4899609;29;20278;-42
2022/09/01 12:10:07;;;;;;;2.70;1.30;;;;;;;;;;4900422;29;20294;-43
2022/09/01 12:12:37;;;;;;;3.07;1.10;;;;;;;;;;4899765;29;20944;-43
2022/09/01 12:15:23;;;;;;;6.53;1.73;;;;;;;;;;4897821;29;20208;-42
2022/09/01 12:17:50;;;;;;;3.57;1.50;;;;;;;;;;4898386;29;20188;-41
2022/09/01 12:20:21;;;;;;;4.97;1.67;;;;;;;;;;4899731;29;20367;-42
2022/09/01 12:22:47;;;;;;;3.23;1.20;;;;;;;;;;4900111;29;20307;-43
2022/09/01 12:25:24;;;;;;;2.90;1.47;;;;;;;;;;4900990;29;20191;-42
2022/09/01 12:27:51;;;;;;;4.57;1.40;;;;;;;;;;4899451;29;20882;-42
2022/09/01 12:30:25;;;;;;;6.00;1.70;;;;;;;;;;4900634;29;21050;-42
2022/09/01 12:32:51;;;;;;;4.47;1.60;;;;;;;;;;4902552;29;20180;-41
2022/09/01 12:35:22;;;;;;;4.73;1.40;;;;;;;;;;4899730;29;20200;-42
2022/09/01 12:37:49;;;;;;;2.90;1.30;;;;;;;;;;4897952;29;20593;-43
2022/09/01 12:40:26;;;;;;;4.93;1.70;;;;;;;;;;4896166;29;21011;-42
2022/09/01 12:42:53;;;;;;;5.13;1.40;;;;;;;;;;4899536;29;20184;-42
2022/09/01 12:45:37;;;;;;;4.57;1.50;;;;;;;;;;4902428;29;20187;-43
2022/09/01 12:48:03;;;;;;;2.80;1.50;;;;;;;;;;4898906;29;20573;-42
2022/09/01 12:50:30;;;;;;;5.23;1.80;;;;;;;;;;4898110;29;20184;-42
2022/09/01 12:53:03;;;;;;;3.30;1.80;;;;;;;;;;4900065;29;20184;-43
2022/09/01 12:55:34;;;;;;;4.70;1.70;;;;;;;;;;4901906;29;20513;-41
2022/09/01 12:58:02;;;;;;;3.37;1.50;;;;;;;;;;4899973;28;20180;-43
2022/09/01 13:00:32;;;;;;;3.00;1.83;;;;;;;;;;4898371;29;20504;-43
2022/09/01 13:03:16;;;;;;;4.90;1.90;;;;;;;;;;4899883;29;20188;-43
2022/09/01 13:05:50;;;;;;;5.57;1.77;;;;;;;;;;4901712;28;20984;-43
2022/09/01 13:08:18;;;;;;;6.63;1.53;;;;;;;;;;4899159;29;20422;-43
2022/09/01 13:10:45;;;;;;;3.93;1.50;;;;;;;;;;4887885;29;20176;-44
2022/09/01 13:13:13;;;;;;;4.40;1.60;;;;;;;;;;4888444;29;20620;-42
2022/09/01 13:15:41;;;;;;;3.57;1.50;;;;;;;;;;4887625;29;20211;-43
2022/09/01 13:18:07;;;;;;;4.80;1.20;;;;;;;;;;4885631;28;20501;-43
2022/09/01 13:20:34;;;;;;;3.43;1.40;;;;;;;;;;4888904;29;20187;-43
2022/09/01 13:23:01;;;;;;;2.23;1.13;;;;;;;;;;4890275;29;20232;-43
2022/09/01 13:25:27;;;;;;;4.70;1.57;;;;;;;;;;4888521;29;20204;-43
2022/09/01 13:27:54;;;;;;;2.57;1.40;;;;;;;;;;4887367;29;20953;-43
2022/09/01 13:30:21;;;;;;;4.67;1.30;;;;;;;;;;4888588;29;20714;-43
2022/09/01 13:32:49;;;;;;;2.37;1.30;;;;;;;;;;4891656;29;20551;-44
2022/09/01 13:35:16;;;;;;;2.63;1.17;;;;;;;;;;4894152;29;20220;-43
2022/09/01 13:37:42;;;;;;;2.40;1.20;;;;;;;;;;4892415;28;20609;-43
2022/09/01 13:40:14;;;;;;;4.07;1.17;;;;;;;;;;4888592;29;20807;-44
2022/09/01 13:42:40;;;;;;;5.43;1.37;;;;;;;;;;4883308;29;20176;-43
2022/09/01 13:45:06;;;;;;;3.07;1.40;;;;;;;;;;4878815;29;20192;-43
2022/09/01 13:47:33;;;;;;;4.10;1.60;;;;;;;;;;4877116;29;21325;-44
2022/09/01 13:50:00;;;;;;;4.63;1.70;;;;;;;;;;4884100;29;20326;-44
2022/09/01 13:52:26;;;;;;;3.27;1.63;;;;;;;;;;4884303;28;20184;-43
2022/09/01 13:54:52;;;;;;;5.50;1.90;;;;;;;;;;4885286;29;20208;-43
2022/09/01 13:57:18;;;;;;;2.70;1.50;;;;;;;;;;4885698;29;20181;-44
2022/09/01 13:59:44;;;;;;;4.60;1.70;;;;;;;;;;4883097;29;20196;-42
2022/09/01 14:02:10;;;;;;;3.50;1.70;;;;;;;;;;4883247;29;20176;-44
2022/09/01 14:04:36;;;;;;;4.90;1.73;;;;;;;;;;4886697;29;20187;-44
2022/09/01 14:07:02;;;;;;;3.60;1.97;;;;;;;;;;4887379;29;20327;-44
2022/09/01 14:09:28;;;;;;;6.23;2.00;;;;;;;;;;4883664;29;20310;-44
2022/09/01 14:11:55;;;;;;;3.63;2.00;;;;;;;;;;4885561;29;20181;-43
2022/09/01 14:14:22;;;;;;;5.43;1.73;;;;;;;;;;4893035;29;20990;-44
2022/09/01 14:16:48;;;;;;;6.20;2.17;;;;;;;;;;4890949;29;20181;-43
2022/09/01 14:19:14;;;;;;;4.43;1.90;;;;;;;;;;4887388;29;20188;-44
2022/09/01 14:21:41;;;;;;;3.80;1.80;;;;;;;;;;4888984;29;20184;-44
2022/09/01 14:24:07;;;;;;;3.53;2.30;;;;;;;;;;4891321;29;20199;-43
2022/09/01 14:26:33;;;;;;;2.97;1.83;;;;;;;;;;4890350;29;20184;-43
2022/09/01 14:29:01;;;;;;;4.50;1.77;;;;;;;;;;4887683;29;21138;-43
2022/09/01 14:31:29;;;;;;;4.20;2.03;;;;;;;;;;4885141;29;20213;-42
2022/09/01 14:33:55;;;;;;;4.63;2.30;;;;;;;;;;4887341;29;20411;-42
2022/09/01 14:36:23;;;;;;;3.23;2.00;;;;;;;;;;4888178;29;20184;-42
2022/09/01 14:38:49;;;;;;;4.10;1.90;;;;;;;;;;4891467;29;20216;-42
2022/09/01 14:41:19;;;;;;;3.83;2.20;;;;;;;;;;4890677;29;20180;-42
2022/09/01 14:43:45;;;;;;;4.60;2.10;;;;;;;;;;4888919;29;21593;-42